NFFN/NAN METAR and TAF weather

Enter ICAO airport designator
Station Type Date Time Source
NFFN METAR 2021/09/16 21:00 UTC NOAA

NFFN 162100Z 25003KT 120V290 9999 FEW030 28/23 Q1015 NOSIG


Station Type Date Time Source
NFFN Decoded METAR 2021/09/16 21:00 UTC NOAA

Nandi, Fiji (NFFN) 17-45S 177-27E 18M
Sep 16, 2021 - 05:00 PM EDT / 2021.09.16 2100 UTC
Wind: from the WSW (250 degrees) at 3 MPH (3 KT) (direction variable):0
Visibility: greater than 7 mile(s):0
Sky conditions: mostly clear
Temperature: 82 F (28 C)
Dew Point: 73 F (23 C)
Relative Humidity: 74%
Pressure (altimeter): 29.97 in. Hg (1015 hPa)
ob: NFFN 162100Z 25003KT 120V290 9999 FEW030 28/23 Q1015 NOSIG
cycle: 21

Station Type Date Time Source
NFFN TAF 2021/09/16 18:12 UTC NOAA

TAF NFFN 161710Z 1618/1718 08007KT 9999 FEW028 SCT045
BECMG 1622/1624 29010KT PROB30
TEMPO 1702/1706 5000 TSRA FEW018CB
BECMG 1704/1706 06006KT

Example: see airport list